Tropical Cyclones
[Index]
Main Index Home Page Stock Weather Photos Extreme Storms Discussion Storm News and Storm Chasing Reports Tropical Cyclones / Hurricanes / Typhoons Weather Data and Links Wild Fires / Bushfires Weather Observation Techniques Weather Picture Catalogue Tornado Pictures and Reports Stock Video Footage and DVDs for sale
Season 2014-2015 Tropical Cyclone OLA Track Map
Season 2014-2015 Summaries (Operational Data): [AU] [SIO] [SPAC] [SH]
<<- Previous TC | 2014-2015 Season | Next TC ->>

click for intensity scale information  Lat/long Grid: Show Hide

 Date Labels: Show Hide

Operational Tropical Cyclone Data : JTWC Advisories

Name: OLA
Number: 1510

26 Jan 2015 18:00 UTC to 04 Feb 2015 12:00 UTC

    date/time    lat    long     hPa   cat  kts
2015-01-26 18   15.7   156.0    1010         15          
2015-01-27 00   15.6   156.1    1010         15          
2015-01-27 06   15.5   156.2    1010         15          
2015-01-27 12   15.6   156.6    1010         15          
2015-01-27 18   15.9   157.0    1010         15          
2015-01-28 00   16.3   157.4    1010         15          
2015-01-28 06   16.8   157.7    1010         15          
2015-01-28 12   17.2   157.7    1010         15          
2015-01-28 18   17.5   157.9    1010         15          
2015-01-29 00   17.7   158.4    1010         15          
2015-01-29 06   17.4   159.2    1000         20          
2015-01-29 12   16.9   159.8    1000         20          
2015-01-29 18   16.4   161.2     999         25          
2015-01-30 00   16.5   161.4     999         25          
2015-01-30 06   16.7   161.5     999         25          
2015-01-30 12   16.9   161.5     997         30          
2015-01-30 18   17.2   161.5     996    1    35          
2015-01-31 00   17.5   161.5     993    1    40          
2015-01-31 06   17.8   161.8     989    1    45          
2015-01-31 12   18.2   162.0     982    2    55          
2015-01-31 18   18.9   162.1     974    3    65          
2015-02-01 00   19.7   162.2     970    3    70          
2015-02-01 06   20.4   162.3     967    3    75          
2015-02-01 12   20.9   162.4     967    3    75          
2015-02-01 18   21.5   162.4     970    3    70          
2015-02-02 00   22.4   162.4     970    3    70          
2015-02-02 06   23.4   162.1     974    3    65          
2015-02-02 12   24.4   162.0     978    2    60          
2015-02-02 18   25.6   162.0     982    2    55          
2015-02-03 00   26.6   162.0     989    1    45          
2015-02-03 06   27.5   162.1     993    1    40          
2015-02-03 12   28.9   162.2     996    1    35          
2015-02-03 18   29.9   165.0    1000                     
2015-02-04 00   32.3   167.8    1002                     
2015-02-04 06   34.2   171.1    1003                     
2015-02-04 12   35.4   174.3    1005                     
Winds are 10-min average.

Tropical cyclone tracks developed by Michael Bath using operational warnings and advisories and Google Maps.


[Australian Severe Weather index] [Copyright Notice] [Email Contacts] [Search This Site] [Privacy Policy]
Document: tropical_cyclone_ola.htm Updated: 2 May 2017